createdAt,value
2019-05-23T00:02:42.137Z,92.80
2019-05-23T00:05:30.798Z,92.60
2019-05-23T00:08:03.283Z,92.90
2019-05-23T00:10:40.026Z,93.30
2019-05-23T00:13:24.582Z,93.70
2019-05-23T00:15:54.815Z,93.10
2019-05-23T00:18:27.124Z,93.20
2019-05-23T00:20:58.108Z,92.80
2019-05-23T00:23:28.828Z,93.10
2019-05-23T00:25:59.508Z,92.80
2019-05-23T00:28:28.819Z,92.50
2019-05-23T00:31:02.801Z,92.70
2019-05-23T00:33:35.275Z,92.70
2019-05-23T00:36:05.377Z,92.60
2019-05-23T00:38:36.287Z,93.30
2019-05-23T00:41:07.596Z,93.60
2019-05-23T00:43:38.172Z,93.40
2019-05-23T00:46:08.608Z,93.70
2019-05-23T00:48:41.436Z,93.80
2019-05-23T00:51:11.948Z,93.30
2019-05-23T00:53:42.589Z,92.90
2019-05-23T00:56:13.543Z,93.30
2019-05-23T00:58:43.208Z,93.10
2019-05-23T01:01:13.559Z,93.10
2019-05-23T01:03:43.895Z,93.00
2019-05-23T01:06:14.299Z,93.70
2019-05-23T01:08:44.163Z,93.60
2019-05-23T01:11:13.876Z,93.20
2019-05-23T01:13:43.409Z,93.00
2019-05-23T01:16:13.790Z,92.60
2019-05-23T01:18:43.511Z,92.60
2019-05-23T01:21:36.014Z,93.30
2019-05-23T01:24:19.809Z,93.40
2019-05-23T01:26:49.933Z,93.30
2019-05-23T01:29:20.919Z,93.30
2019-05-23T01:31:53.857Z,93.20
2019-05-23T01:34:24.930Z,93.20
2019-05-23T01:36:55.961Z,93.20
2019-05-23T01:39:25.372Z,93.30
2019-05-23T01:41:55.559Z,93.30
2019-05-23T01:44:26.464Z,93.40
2019-05-23T01:46:56.530Z,93.30
2019-05-23T01:49:26.560Z,93.00
2019-05-23T01:51:57.065Z,93.30
2019-05-23T01:54:27.464Z,93.50
2019-05-23T01:56:56.792Z,93.60
2019-05-23T01:59:26.760Z,93.30
2019-05-23T02:01:56.559Z,93.00
2019-05-23T02:04:26.153Z,93.10
2019-05-23T02:06:56.634Z,93.40
2019-05-23T02:09:26.606Z,93.40
2019-05-23T02:11:55.938Z,93.50
2019-05-23T02:14:26.617Z,93.90
2019-05-23T02:16:58.208Z,93.70
2019-05-23T02:19:28.238Z,93.80
2019-05-23T02:21:57.831Z,94.10
2019-05-23T02:24:27.580Z,93.50
2019-05-23T02:26:56.734Z,93.70
2019-05-23T02:29:26.094Z,93.60
2019-05-23T02:31:55.762Z,94.40
2019-05-23T02:34:25.609Z,94.10
2019-05-23T02:36:57.645Z,93.70
2019-05-23T02:39:46.577Z,93.80
2019-05-23T02:42:30.669Z,93.40
2019-05-23T02:45:01.100Z,93.30
2019-05-23T02:47:38.928Z,93.20
2019-05-23T02:50:12.002Z,93.60
2019-05-23T02:52:46.327Z,93.50
2019-05-23T02:55:21.226Z,93.60
2019-05-23T02:57:52.248Z,94.10
2019-05-23T03:00:53.267Z,94.00
2019-05-23T03:03:19.441Z,94.50
2019-05-23T03:05:49.913Z,94.40
2019-05-23T03:08:19.965Z,94.60
2019-05-23T03:10:58.906Z,94.50
2019-05-23T03:13:32.430Z,94.20
2019-05-23T03:16:03.603Z,94.10
2019-05-23T03:18:37.886Z,94.40
2019-05-23T03:21:09.088Z,94.80
2019-05-23T03:23:38.762Z,94.50
2019-05-23T03:26:52.690Z,95.00
2019-05-23T03:29:22.349Z,94.60
2019-05-23T03:32:01.447Z,94.80
2019-05-23T03:34:34.925Z,94.80
2019-05-23T03:37:06.037Z,94.60
2019-05-23T03:39:35.912Z,94.40
2019-05-23T03:42:05.202Z,94.50
2019-05-23T03:44:34.410Z,94.40
2019-05-23T03:47:05.525Z,94.70
2019-05-23T03:49:34.685Z,94.60
2019-05-23T03:52:04.880Z,94.60
2019-05-23T03:54:35.757Z,94.90
2019-05-23T03:57:05.935Z,95.00
2019-05-23T03:59:36.261Z,94.40
2019-05-23T04:02:07.507Z,95.10
2019-05-23T04:04:38.282Z,94.70
2019-05-23T04:07:07.919Z,95.40
2019-05-23T04:09:37.822Z,94.50
2019-05-23T04:12:07.894Z,95.00
2019-05-23T04:14:37.387Z,94.50
2019-05-23T04:17:09.211Z,95.30
2019-05-23T04:19:38.941Z,94.70
2019-05-23T04:22:08.776Z,94.80
2019-05-23T04:24:38.504Z,94.90
2019-05-23T04:27:08.876Z,95.20
2019-05-23T04:29:38.117Z,94.90
2019-05-23T04:32:09.575Z,94.80
2019-05-23T04:34:39.193Z,95.10
2019-05-23T04:37:09.189Z,94.80
2019-05-23T04:39:38.573Z,94.70
2019-05-23T04:42:09.013Z,95.50
2019-05-23T04:44:43.472Z,96.00
2019-05-23T04:47:10.627Z,95.90
2019-05-23T04:49:40.457Z,95.90
2019-05-23T04:52:10.136Z,95.50
2019-05-23T04:54:39.912Z,95.50
2019-05-23T04:57:10.347Z,95.00
2019-05-23T04:59:40.973Z,95.70
2019-05-23T05:02:25.640Z,95.40
2019-05-23T05:04:43.924Z,95.60
2019-05-23T05:07:13.605Z,95.20
2019-05-23T05:09:44.189Z,95.00
2019-05-23T05:12:14.636Z,95.00
2019-05-23T05:14:44.973Z,94.80
2019-05-23T05:17:14.672Z,94.40
2019-05-23T05:19:44.090Z,94.70
2019-05-23T05:22:15.053Z,94.10
2019-05-23T05:24:45.370Z,93.10
2019-05-23T05:27:15.912Z,92.80
2019-05-23T05:29:45.219Z,92.40
2019-05-23T05:32:15.732Z,92.10
2019-05-23T05:34:45.642Z,92.30
2019-05-23T05:37:14.896Z,92.60
2019-05-23T05:39:45.785Z,92.00
2019-05-23T05:42:16.329Z,92.10
2019-05-23T05:44:45.719Z,91.30
2019-05-23T05:47:15.448Z,91.50
2019-05-23T05:49:45.255Z,91.30
2019-05-23T05:52:15.726Z,91.30
2019-05-23T05:54:45.268Z,90.70
2019-05-23T05:57:15.727Z,90.50
2019-05-23T05:59:45.142Z,90.40
2019-05-23T06:02:16.751Z,90.20
2019-05-23T06:04:46.358Z,90.30
2019-05-23T06:07:37.412Z,90.40
2019-05-23T06:10:15.086Z,90.40
2019-05-23T06:12:45.718Z,86.80
2019-05-23T06:15:15.962Z,86.90
2019-05-23T06:17:45.946Z,86.70
2019-05-23T06:20:15.887Z,85.80
2019-05-23T06:22:46.245Z,86.10
2019-05-23T06:25:16.539Z,85.10
2019-05-23T06:27:46.483Z,83.30
2019-05-23T06:30:18.988Z,83.70
2019-05-23T06:32:48.491Z,83.10
2019-05-23T06:35:17.712Z,82.80
2019-05-23T06:37:47.692Z,79.70
2019-05-23T06:40:18.157Z,81.50
2019-05-23T06:42:50.522Z,82.60
2019-05-23T06:45:19.735Z,81.00
2019-05-23T06:47:49.936Z,80.50
2019-05-23T06:50:20.536Z,79.80
2019-05-23T06:52:50.152Z,78.70
2019-05-23T06:55:19.701Z,77.70
2019-05-23T06:57:48.857Z,78.40
2019-05-23T07:00:22.324Z,77.90
2019-05-23T07:02:51.718Z,80.00
2019-05-23T07:05:26.245Z,76.80
2019-05-23T07:07:56.333Z,78.10
2019-05-23T07:10:25.680Z,76.80
2019-05-23T07:12:55.011Z,76.50
2019-05-23T07:15:25.461Z,78.40
2019-05-23T07:17:55.000Z,76.50
2019-05-23T07:20:24.660Z,76.20
2019-05-23T07:22:54.351Z,79.30
2019-05-23T07:25:24.779Z,76.70
2019-05-23T07:27:54.955Z,77.60
2019-05-23T07:30:26.745Z,75.20
2019-05-23T07:32:57.107Z,73.60
2019-05-23T07:35:26.669Z,74.20
2019-05-23T07:37:55.929Z,71.10
2019-05-23T07:40:27.335Z,71.80
2019-05-23T07:42:56.897Z,74.50
2019-05-23T07:45:32.455Z,71.50
2019-05-23T07:48:04.071Z,73.00
2019-05-23T07:50:33.631Z,70.20
2019-05-23T07:53:04.306Z,71.90
2019-05-23T07:55:38.777Z,66.60
2019-05-23T07:58:13.195Z,67.70
2019-05-23T08:00:44.955Z,69.00
2019-05-23T08:03:15.921Z,70.30
2019-05-23T08:05:46.603Z,68.40
2019-05-23T08:08:16.710Z,68.70
2019-05-23T08:10:47.499Z,67.10
2019-05-23T08:13:17.733Z,66.90
2019-05-23T08:15:47.871Z,69.50
2019-05-23T08:18:18.753Z,68.40
2019-05-23T08:20:47.969Z,64.50
2019-05-23T08:23:17.870Z,66.50
2019-05-23T08:25:48.063Z,66.40
2019-05-23T08:28:18.176Z,64.30
2019-05-23T08:30:47.780Z,65.10
2019-05-23T08:33:18.676Z,64.80
2019-05-23T08:35:48.112Z,64.70
2019-05-23T08:38:18.507Z,65.40
2019-05-23T08:40:48.831Z,60.20
2019-05-23T08:43:18.534Z,61.90
2019-05-23T08:45:49.123Z,63.80
2019-05-23T08:48:18.560Z,63.60
2019-05-23T08:50:51.415Z,59.10
2019-05-23T08:53:19.711Z,61.50
2019-05-23T08:55:50.122Z,60.90
2019-05-23T08:58:19.535Z,59.20
2019-05-23T09:00:49.625Z,61.60
2019-05-23T09:03:19.859Z,62.20
2019-05-23T09:05:49.640Z,60.30
2019-05-23T09:08:20.544Z,61.30
2019-05-23T09:10:50.866Z,60.90
2019-05-23T09:13:20.527Z,59.20
2019-05-23T09:15:52.726Z,56.00
2019-05-23T09:18:21.876Z,57.00
2019-05-23T09:20:51.380Z,58.20
2019-05-23T09:23:20.673Z,57.70
2019-05-23T09:25:49.842Z,54.90
2019-05-23T09:28:19.851Z,52.40
2019-05-23T09:30:50.946Z,53.20
2019-05-23T09:33:20.211Z,55.70
2019-05-23T09:35:50.003Z,54.20
2019-05-23T09:38:21.089Z,55.00
2019-05-23T09:40:50.340Z,52.80
2019-05-23T09:43:21.064Z,50.40
2019-05-23T09:45:50.200Z,51.90
2019-05-23T09:48:20.151Z,55.20
2019-05-23T09:50:50.108Z,55.80
2019-05-23T09:53:20.594Z,55.90
2019-05-23T09:55:50.103Z,54.30
2019-05-23T09:58:20.756Z,53.60
2019-05-23T10:00:50.533Z,54.30
2019-05-23T10:03:20.692Z,54.20
2019-05-23T10:05:50.506Z,52.20
2019-05-23T10:08:21.340Z,52.70
2019-05-23T10:10:50.590Z,50.80
2019-05-23T10:13:36.045Z,52.10
2019-05-23T10:16:06.895Z,52.50
2019-05-23T10:18:37.203Z,53.30
2019-05-23T10:21:06.480Z,53.10
2019-05-23T10:23:35.952Z,50.90
2019-05-23T10:26:06.252Z,52.70
2019-05-23T10:28:35.512Z,50.60
2019-05-23T10:31:08.053Z,52.50
2019-05-23T10:33:37.614Z,49.00
2019-05-23T10:36:07.479Z,49.50
2019-05-23T10:38:36.691Z,53.00
2019-05-23T10:41:06.499Z,46.70
2019-05-23T10:43:36.336Z,47.70
2019-05-23T10:46:06.103Z,47.30
2019-05-23T10:48:37.529Z,50.50
2019-05-23T10:51:07.604Z,47.30
2019-05-23T10:53:37.175Z,49.20
2019-05-23T10:56:06.357Z,47.70
2019-05-23T10:58:36.593Z,48.40
2019-05-23T11:01:06.954Z,47.80
2019-05-23T11:03:36.679Z,48.40
2019-05-23T11:06:16.069Z,48.10
2019-05-23T11:08:39.422Z,46.10
2019-05-23T11:11:13.886Z,48.80
2019-05-23T11:13:41.435Z,48.70
2019-05-23T11:16:10.865Z,48.00
2019-05-23T11:18:40.262Z,47.00
2019-05-23T11:21:09.841Z,48.00
2019-05-23T11:23:44.086Z,47.80
2019-05-23T11:26:13.785Z,47.10
2019-05-23T11:28:43.001Z,44.30
2019-05-23T11:31:13.692Z,46.50
2019-05-23T11:33:42.832Z,46.40
2019-05-23T11:36:12.921Z,43.90
2019-05-23T11:38:42.956Z,43.20
2019-05-23T11:41:12.846Z,46.30
2019-05-23T11:43:42.045Z,47.20
2019-05-23T11:46:21.541Z,45.60
2019-05-23T11:48:51.227Z,43.70
2019-05-23T11:51:25.043Z,45.70
2019-05-23T11:54:06.828Z,41.90
2019-05-23T11:56:25.509Z,44.10
2019-05-23T11:58:55.419Z,46.00
2019-05-23T12:01:30.448Z,47.00
2019-05-23T12:04:04.423Z,47.40
2019-05-23T12:06:54.424Z,44.80
2019-05-23T12:09:12.516Z,44.30
2019-05-23T12:11:42.870Z,42.30
2019-05-23T12:14:12.864Z,46.00
2019-05-23T12:16:42.864Z,48.10
2019-05-23T12:19:12.426Z,47.10
2019-05-23T12:21:41.729Z,44.60
2019-05-23T12:24:11.068Z,47.10
2019-05-23T12:26:40.609Z,47.70
2019-05-23T12:29:10.742Z,42.80
2019-05-23T12:31:42.877Z,44.70
2019-05-23T12:34:12.478Z,45.70
2019-05-23T12:36:42.039Z,47.00
2019-05-23T12:39:12.128Z,45.20
2019-05-23T12:41:43.124Z,45.40
2019-05-23T12:44:12.965Z,44.50
2019-05-23T12:46:42.523Z,45.30
2019-05-23T12:49:21.373Z,46.30
2019-05-23T12:51:51.106Z,45.50
2019-05-23T12:54:20.580Z,43.20
2019-05-23T12:56:50.224Z,43.90
2019-05-23T12:59:20.182Z,45.10
2019-05-23T13:01:51.159Z,44.70
2019-05-23T13:04:22.017Z,43.20
2019-05-23T13:06:52.082Z,46.30
2019-05-23T13:09:21.750Z,45.90
2019-05-23T13:11:51.912Z,45.40
2019-05-23T13:14:21.652Z,43.80
2019-05-23T13:16:51.630Z,45.90
2019-05-23T13:19:21.641Z,40.10
2019-05-23T13:21:52.030Z,43.20
2019-05-23T13:24:21.514Z,43.20
2019-05-23T13:26:51.541Z,42.80
2019-05-23T13:29:24.437Z,45.80
2019-05-23T13:31:55.734Z,46.70
2019-05-23T13:34:25.676Z,43.90
2019-05-23T13:36:55.339Z,44.40
2019-05-23T13:39:26.192Z,43.80
2019-05-23T13:41:55.912Z,43.70
2019-05-23T13:44:34.031Z,46.80
2019-05-23T13:46:59.630Z,46.20
2019-05-23T13:49:28.942Z,44.40
2019-05-23T13:51:58.930Z,44.90
2019-05-23T13:54:35.916Z,44.30
2019-05-23T13:57:03.711Z,46.10
2019-05-23T13:59:33.428Z,43.40
2019-05-23T14:02:03.492Z,43.70
2019-05-23T14:04:32.997Z,44.70
2019-05-23T14:07:02.447Z,43.80
2019-05-23T14:09:33.030Z,42.80
2019-05-23T14:14:34.097Z,45.40
2019-05-23T14:17:31.443Z,44.10
2019-05-23T14:20:01.048Z,45.70
2019-05-23T14:22:32.289Z,46.10
2019-05-23T14:25:01.605Z,45.60
2019-05-23T14:27:39.423Z,42.30
2019-05-23T14:30:18.782Z,44.40
2019-05-23T14:32:53.519Z,44.30
2019-05-23T14:35:28.179Z,45.80
2019-05-23T14:37:59.273Z,45.70
2019-05-23T14:40:28.901Z,45.90
2019-05-23T14:43:18.814Z,44.60
2019-05-23T14:46:09.115Z,43.50
2019-05-23T14:48:57.640Z,43.40
2019-05-23T14:51:44.651Z,43.90
2019-05-23T14:54:22.441Z,43.90
2019-05-23T14:56:51.737Z,44.00
2019-05-23T14:59:21.839Z,43.80
2019-05-23T15:01:52.680Z,44.90
2019-05-23T15:04:22.363Z,43.40
2019-05-23T15:06:51.962Z,45.00
2019-05-23T15:09:22.009Z,44.10
2019-05-23T15:11:51.694Z,43.50
2019-05-23T15:14:21.546Z,44.00
2019-05-23T15:16:51.507Z,45.70
2019-05-23T15:19:40.034Z,45.10
2019-05-23T15:21:51.897Z,42.80
2019-05-23T15:24:21.665Z,44.20
2019-05-23T15:26:51.111Z,43.90
2019-05-23T15:29:21.258Z,44.20
2019-05-23T15:32:01.919Z,42.70
2019-05-23T15:34:21.652Z,45.60
2019-05-23T15:36:51.301Z,43.50
2019-05-23T15:39:21.999Z,40.50
2019-05-23T15:41:51.635Z,40.20
2019-05-23T15:44:27.423Z,42.90
2019-05-23T15:46:52.252Z,42.30
2019-05-23T15:49:21.490Z,43.20
2019-05-23T15:52:08.756Z,40.40
2019-05-23T15:54:46.936Z,41.30
2019-05-23T15:57:34.351Z,41.90
2019-05-23T16:00:23.035Z,42.20
2019-05-23T16:02:59.521Z,42.80
2019-05-23T16:05:28.734Z,42.00
2019-05-23T16:07:59.252Z,42.30
2019-05-23T16:10:28.675Z,43.60
2019-05-23T16:12:59.901Z,41.70
2019-05-23T16:15:30.868Z,41.80
2019-05-23T16:18:00.937Z,42.00
2019-05-23T16:20:30.776Z,41.40
2019-05-23T16:23:00.224Z,42.50
2019-05-23T16:25:29.375Z,44.20
2019-05-23T16:27:59.433Z,44.20
2019-05-23T16:30:29.020Z,45.00
2019-05-23T16:32:59.264Z,43.20
2019-05-23T16:35:29.389Z,42.70
2019-05-23T16:37:59.193Z,42.50
2019-05-23T16:40:29.567Z,42.20
2019-05-23T16:42:59.625Z,43.30
2019-05-23T16:45:29.465Z,44.10
2019-05-23T16:47:59.439Z,41.60
2019-05-23T16:50:29.788Z,42.90
2019-05-23T16:52:59.858Z,41.10
2019-05-23T16:55:45.537Z,42.30
2019-05-23T16:58:22.664Z,42.40
2019-05-23T17:01:23.398Z,40.00
2019-05-23T17:04:04.320Z,43.00
2019-05-23T17:06:40.802Z,40.90
2019-05-23T17:10:06.818Z,42.30
2019-05-23T17:12:52.844Z,40.80
2019-05-23T17:15:37.757Z,42.10
2019-05-23T17:18:25.034Z,42.90
2019-05-23T17:21:16.897Z,41.80
2019-05-23T17:24:03.877Z,44.40
2019-05-23T17:27:11.209Z,42.20
2019-05-23T17:29:53.504Z,44.20
2019-05-23T17:32:26.601Z,46.10
2019-05-23T17:34:56.488Z,41.80
2019-05-23T17:37:26.444Z,42.80
2019-05-23T17:39:56.382Z,47.20
2019-05-23T17:42:26.593Z,47.60
2019-05-23T17:44:55.807Z,48.00
2019-05-23T17:47:25.167Z,47.70
2019-05-23T17:49:54.802Z,48.30
2019-05-23T17:52:24.492Z,49.00
2019-05-23T17:54:54.493Z,48.10
2019-05-23T17:57:23.785Z,47.00
2019-05-23T17:59:53.719Z,48.80
2019-05-23T18:02:24.812Z,48.70
2019-05-23T18:04:55.007Z,47.60
2019-05-23T18:07:24.593Z,48.00
2019-05-23T18:09:54.702Z,48.10
2019-05-23T18:12:23.948Z,49.50
2019-05-23T18:14:53.520Z,49.50
2019-05-23T18:17:23.547Z,48.70
2019-05-23T18:19:53.393Z,50.30
2019-05-23T18:22:23.021Z,50.40
2019-05-23T18:24:53.281Z,51.20
2019-05-23T18:27:23.542Z,51.60
2019-05-23T18:29:52.904Z,53.00
2019-05-23T18:32:25.099Z,53.20
2019-05-23T18:34:55.222Z,53.20
2019-05-23T18:37:24.716Z,54.20
2019-05-23T18:39:54.468Z,54.80
2019-05-23T18:42:24.360Z,55.10
2019-05-23T18:44:54.327Z,55.30
2019-05-23T18:47:29.360Z,55.70
2019-05-23T18:49:59.329Z,56.30
2019-05-23T18:52:28.744Z,57.00
2019-05-23T18:54:59.940Z,57.50
2019-05-23T18:57:30.624Z,58.30
2019-05-23T18:59:59.781Z,58.50
2019-05-23T19:02:30.040Z,58.50
2019-05-23T19:05:00.229Z,58.70
2019-05-23T19:07:29.486Z,59.40
2019-05-23T19:09:58.631Z,59.70
2019-05-23T19:12:28.288Z,59.90
2019-05-23T19:14:57.713Z,60.30
2019-05-23T19:17:27.068Z,60.70
2019-05-23T19:19:57.577Z,61.30
2019-05-23T19:22:27.941Z,61.70
2019-05-23T19:24:57.096Z,62.10
2019-05-23T19:27:26.638Z,63.60
2019-05-23T19:29:56.049Z,64.70
2019-05-23T19:32:26.113Z,65.60
2019-05-23T19:34:56.171Z,65.50
2019-05-23T19:37:26.333Z,67.20
2019-05-23T19:39:56.616Z,67.30
2019-05-23T19:42:26.959Z,68.90
2019-05-23T19:44:56.590Z,68.10
2019-05-23T19:47:26.586Z,68.70
2019-05-23T19:49:56.988Z,71.00
2019-05-23T19:52:27.343Z,71.00
2019-05-23T19:54:56.693Z,72.30
2019-05-23T19:57:26.659Z,72.30
2019-05-23T19:59:56.404Z,72.30
2019-05-23T20:02:42.157Z,73.10
2019-05-23T20:05:34.118Z,73.90
2019-05-23T20:08:03.804Z,74.10
2019-05-23T20:10:33.872Z,73.90
2019-05-23T20:13:03.685Z,73.90
2019-05-23T20:15:33.724Z,73.10
2019-05-23T20:18:05.170Z,73.80
2019-05-23T20:20:35.203Z,73.70
2019-05-23T20:23:04.698Z,74.20
2019-05-23T20:25:34.420Z,73.90
2019-05-23T20:28:03.882Z,74.30
2019-05-23T20:30:55.872Z,74.40
2019-05-23T20:33:25.166Z,75.00
2019-05-23T20:35:55.144Z,75.60
2019-05-23T20:38:26.158Z,75.30
2019-05-23T20:40:56.267Z,76.80
2019-05-23T20:43:27.457Z,76.30
2019-05-23T20:45:57.307Z,76.20
2019-05-23T20:48:27.969Z,77.20
2019-05-23T20:50:57.683Z,76.20
2019-05-23T20:53:27.450Z,76.10
2019-05-23T20:55:57.788Z,76.20
2019-05-23T20:58:27.825Z,76.90
2019-05-23T21:01:16.641Z,77.20
2019-05-23T21:03:47.039Z,78.40
2019-05-23T21:06:16.289Z,77.90
2019-05-23T21:08:46.251Z,77.70
2019-05-23T21:11:15.612Z,79.90
2019-05-23T21:13:44.888Z,80.50
2019-05-23T21:16:14.066Z,80.50
2019-05-23T21:18:43.744Z,80.40
2019-05-23T21:21:13.379Z,80.00
2019-05-23T21:23:43.206Z,79.30
2019-05-23T21:26:12.459Z,79.70
2019-05-23T21:28:42.099Z,79.30
2019-05-23T21:31:15.481Z,79.20
2019-05-23T21:33:45.292Z,80.80
2019-05-23T21:36:14.872Z,80.20
2019-05-23T21:38:44.173Z,80.30
2019-05-23T21:41:13.474Z,81.40
2019-05-23T21:43:43.006Z,81.60
2019-05-23T21:46:12.641Z,82.50
2019-05-23T21:48:42.270Z,81.40
2019-05-23T21:51:11.789Z,80.40
2019-05-23T21:53:41.335Z,82.10
2019-05-23T21:56:11.770Z,83.30
2019-05-23T21:58:41.304Z,82.20
2019-05-23T22:01:55.250Z,81.30
2019-05-23T22:04:29.994Z,81.70
2019-05-23T22:07:04.186Z,81.30
2019-05-23T22:09:34.129Z,81.30
2019-05-23T22:12:03.679Z,82.40
2019-05-23T22:14:33.497Z,81.50
2019-05-23T22:17:03.090Z,82.50
2019-05-23T22:19:33.620Z,82.70
2019-05-23T22:22:04.158Z,83.00
2019-05-23T22:24:33.373Z,83.40
2019-05-23T22:27:02.564Z,83.60
2019-05-23T22:29:32.055Z,84.30
2019-05-23T22:32:01.506Z,84.60
2019-05-23T22:34:49.791Z,84.60
2019-05-23T22:37:25.176Z,84.80
2019-05-23T22:39:55.280Z,86.20
2019-05-23T22:42:25.750Z,84.60
2019-05-23T22:44:55.161Z,85.00
2019-05-23T22:47:25.165Z,84.50
2019-05-23T22:49:54.520Z,86.80
2019-05-23T22:52:23.978Z,86.20
2019-05-23T22:54:53.204Z,85.00
2019-05-23T22:57:22.708Z,86.50
2019-05-23T22:59:52.140Z,85.30
2019-05-23T23:02:21.397Z,85.00
2019-05-23T23:04:50.667Z,85.90
2019-05-23T23:07:20.600Z,85.20
2019-05-23T23:09:49.835Z,86.60
2019-05-23T23:12:20.223Z,86.40
2019-05-23T23:14:49.792Z,85.40
2019-05-23T23:17:20.036Z,85.70
2019-05-23T23:19:49.244Z,86.10
2019-05-23T23:22:18.741Z,85.90
2019-05-23T23:24:47.887Z,87.90
2019-05-23T23:27:17.161Z,87.60
2019-05-23T23:29:46.646Z,86.70
2019-05-23T23:32:16.249Z,87.50
2019-05-23T23:34:46.035Z,87.10
2019-05-23T23:37:15.647Z,88.10
2019-05-23T23:39:45.189Z,87.30
2019-05-23T23:42:14.728Z,87.10
2019-05-23T23:44:43.120Z,87.80
2019-05-23T23:47:30.022Z,87.30
2019-05-23T23:50:17.392Z,89.30
2019-05-23T23:53:04.945Z,87.80
2019-05-23T23:55:51.909Z,87.80
2019-05-23T23:58:20.506Z,89.30
